createdAt,value
2023-05-09T00:01:40.301Z,101509.96
2023-05-09T00:06:43.278Z,101504.74
2023-05-09T00:11:46.389Z,101501.11
2023-05-09T00:16:49.564Z,101498.16
2023-05-09T00:21:52.608Z,101502.23
2023-05-09T00:26:55.513Z,101497.74
2023-05-09T00:31:58.685Z,101494.41
2023-05-09T00:37:02.036Z,101497.52
2023-05-09T00:42:05.206Z,101491.71
2023-05-09T00:47:08.357Z,101493.80
2023-05-09T00:52:11.565Z,101487.39
2023-05-09T00:57:14.883Z,101489.79
2023-05-09T01:02:18.654Z,101485.77
2023-05-09T01:07:38.314Z,101484.86
2023-05-09T01:12:44.517Z,101482.67
2023-05-09T01:17:50.488Z,101479.66
2023-05-09T01:23:11.087Z,101481.92
2023-05-09T01:28:31.379Z,101480.14
2023-05-09T01:33:38.626Z,101481.88
2023-05-09T01:38:44.291Z,101483.86
2023-05-09T01:43:50.615Z,101480.60
2023-05-09T01:48:54.837Z,101479.60
2023-05-09T01:53:59.841Z,101480.60
2023-05-09T01:59:03.969Z,101475.88
2023-05-09T02:04:07.288Z,101477.02
2023-05-09T02:09:11.496Z,101473.52
2023-05-09T02:14:14.732Z,101471.07
2023-05-09T02:19:17.736Z,101473.25
2023-05-09T02:24:20.849Z,101477.52
2023-05-09T02:29:29.994Z,101477.75
2023-05-09T02:34:33.367Z,101483.59
2023-05-09T02:39:36.926Z,101486.95
2023-05-09T02:44:39.942Z,101489.91
2023-05-09T02:49:42.846Z,101486.86
2023-05-09T02:54:46.065Z,101491.63
2023-05-09T02:59:48.959Z,101486.71
2023-05-09T03:04:51.968Z,101483.77
2023-05-09T03:09:55.082Z,101481.55
2023-05-09T03:14:58.080Z,101483.17
2023-05-09T03:20:04.159Z,101483.85
2023-05-09T03:25:08.400Z,101485.04
2023-05-09T03:30:12.366Z,101485.50
2023-05-09T03:35:15.650Z,101483.69
2023-05-09T03:40:18.850Z,101479.44
2023-05-09T03:45:21.863Z,101484.44
2023-05-09T03:50:24.965Z,101486.98
2023-05-09T03:55:28.307Z,101483.59
2023-05-09T04:00:31.493Z,101481.27
2023-05-09T04:05:35.600Z,101483.91
2023-05-09T04:10:38.532Z,101488.64
2023-05-09T04:15:41.740Z,101489.83
2023-05-09T04:20:44.952Z,101488.93
2023-05-09T04:25:47.958Z,101491.61
2023-05-09T04:30:51.362Z,101488.85
2023-05-09T04:35:54.481Z,101489.88
2023-05-09T04:40:58.731Z,101490.77
2023-05-09T04:46:02.871Z,101488.46
2023-05-09T04:51:06.073Z,101492.41
2023-05-09T04:56:09.104Z,101495.70
2023-05-09T05:01:12.241Z,101497.44
2023-05-09T05:06:15.183Z,101491.50
2023-05-09T05:11:18.407Z,101490.86
2023-05-09T05:16:21.535Z,101487.48
2023-05-09T05:21:24.621Z,101485.23
2023-05-09T05:26:27.733Z,101481.55
2023-05-09T05:31:30.993Z,101479.73
2023-05-09T05:36:34.251Z,101479.44
2023-05-09T05:41:37.373Z,101479.00
2023-05-09T05:46:40.491Z,101477.30
2023-05-09T05:51:43.570Z,101471.69
2023-05-09T05:56:46.684Z,101472.45
2023-05-09T06:01:51.469Z,101468.77
2023-05-09T06:06:54.648Z,101465.95
2023-05-09T06:11:57.849Z,101466.77
2023-05-09T06:17:01.219Z,101465.31
2023-05-09T06:22:04.373Z,101463.45
2023-05-09T06:27:07.482Z,101464.48
2023-05-09T06:32:10.594Z,101462.52
2023-05-09T06:37:13.628Z,101461.44
2023-05-09T06:42:17.122Z,101459.43
2023-05-09T06:47:20.128Z,101458.40
2023-05-09T06:52:23.042Z,101459.85
2023-05-09T06:57:26.138Z,101460.10
2023-05-09T07:02:29.164Z,101459.84
2023-05-09T07:07:32.156Z,101455.16
2023-05-09T07:12:35.366Z,101446.02
2023-05-09T07:17:38.547Z,101444.17
2023-05-09T07:22:41.919Z,101441.04
2023-05-09T07:27:45.109Z,101442.36
2023-05-09T07:32:48.144Z,101439.85
2023-05-09T07:37:51.548Z,101429.98
2023-05-09T07:42:57.039Z,101428.48
2023-05-09T07:48:00.372Z,101423.28
2023-05-09T07:53:03.930Z,101417.05
2023-05-09T07:58:07.134Z,101406.73
2023-05-09T08:03:10.540Z,101404.27
2023-05-09T08:08:13.768Z,101395.27
2023-05-09T08:13:16.895Z,101399.43
2023-05-09T08:18:20.087Z,101394.17
2023-05-09T08:23:23.196Z,101387.53
2023-05-09T08:28:28.797Z,101384.54
2023-05-09T08:33:31.867Z,101375.66
2023-05-09T08:38:36.511Z,101379.00
2023-05-09T08:43:41.256Z,101372.17
2023-05-09T08:48:44.940Z,101354.76
2023-05-09T08:53:48.418Z,101349.59
2023-05-09T08:58:51.919Z,101348.98
2023-05-09T09:03:55.482Z,101354.95
2023-05-09T09:08:59.100Z,101344.70
2023-05-09T09:14:15.683Z,101335.00
2023-05-09T09:19:20.429Z,101331.45
2023-05-09T09:24:24.944Z,101326.05
2023-05-09T09:29:29.101Z,101324.74
2023-05-09T09:34:32.320Z,101321.52
2023-05-09T09:39:35.532Z,101317.35
2023-05-09T09:44:38.843Z,101312.74
2023-05-09T09:49:47.160Z,101311.01
2023-05-09T09:54:50.196Z,101299.60
2023-05-09T09:59:59.630Z,101301.33
2023-05-09T10:05:09.560Z,101297.57
2023-05-09T10:10:12.773Z,101292.64
2023-05-09T10:15:20.329Z,101286.90
2023-05-09T10:20:25.283Z,101285.92
2023-05-09T10:25:38.196Z,101278.53
2023-05-09T10:30:47.063Z,101263.66
2023-05-09T10:35:52.224Z,101261.02
2023-05-09T10:40:56.515Z,101258.54
2023-05-09T10:46:00.241Z,101253.88
2023-05-09T10:51:04.766Z,101250.98
2023-05-09T10:56:07.841Z,101247.59
2023-05-09T11:01:11.204Z,101238.82
2023-05-09T11:06:41.715Z,101230.07
2023-05-09T11:12:16.927Z,101221.09
2023-05-09T11:17:23.077Z,101214.98
2023-05-09T11:22:32.992Z,101204.73
2023-05-09T11:27:44.407Z,101198.81
2023-05-09T11:32:55.427Z,101198.89
2023-05-09T11:38:06.811Z,101193.70
2023-05-09T11:43:09.918Z,101187.80
2023-05-09T11:48:13.031Z,101176.30
2023-05-09T11:53:16.041Z,101166.73
2023-05-09T11:58:20.476Z,101157.77
2023-05-09T12:03:24.547Z,101150.45
2023-05-09T12:08:29.308Z,101152.42
2023-05-09T12:13:32.844Z,101139.10
2023-05-09T12:18:36.089Z,101125.23
2023-05-09T12:23:39.296Z,101119.45
2023-05-09T12:28:43.827Z,101118.70
2023-05-09T12:33:47.336Z,101122.05
2023-05-09T12:38:56.624Z,101108.26
2023-05-09T12:44:00.029Z,101100.54
2023-05-09T12:49:03.132Z,101092.52
2023-05-09T12:54:11.040Z,101083.27
2023-05-09T12:59:15.700Z,101072.02
2023-05-09T13:04:20.040Z,101067.34
2023-05-09T13:09:24.489Z,101058.06
2023-05-09T13:14:27.726Z,101060.45
2023-05-09T13:19:30.792Z,101052.20
2023-05-09T13:24:33.916Z,101050.83
2023-05-09T13:29:36.945Z,101044.27
2023-05-09T13:34:39.916Z,101032.41
2023-05-09T13:39:43.129Z,101029.88
2023-05-09T13:44:46.359Z,101016.80
2023-05-09T13:49:49.354Z,101009.02
2023-05-09T13:54:52.466Z,101006.20
2023-05-09T13:59:55.588Z,101000.83
2023-05-09T14:04:59.700Z,100997.34
2023-05-09T14:15:11.330Z,100981.56
2023-05-09T14:20:16.181Z,100984.78
2023-05-09T14:25:19.455Z,100981.64
2023-05-09T14:30:23.335Z,100969.52
2023-05-09T14:35:26.705Z,100966.73
2023-05-09T14:40:32.536Z,100960.64
2023-05-09T14:45:35.629Z,100959.56
2023-05-09T14:50:38.941Z,100960.23
2023-05-09T14:55:42.174Z,100963.14
2023-05-09T15:00:46.078Z,100943.42
2023-05-09T15:05:50.673Z,100938.95
2023-05-09T15:10:53.843Z,100940.92
2023-05-09T15:15:57.472Z,100936.11
2023-05-09T15:21:01.322Z,100928.67
2023-05-09T15:26:04.620Z,100923.45
2023-05-09T15:31:08.578Z,100917.08
2023-05-09T15:36:11.750Z,100912.39
2023-05-09T15:41:15.158Z,100905.44
2023-05-09T15:46:18.685Z,100909.95
2023-05-09T15:51:21.986Z,100903.80
2023-05-09T15:56:25.938Z,100895.41
2023-05-09T16:01:29.011Z,100884.75
2023-05-09T16:06:33.875Z,100883.48
2023-05-09T16:11:36.883Z,100876.77
2023-05-09T16:16:40.772Z,100871.12
2023-05-09T16:21:46.536Z,100862.73
2023-05-09T16:26:49.589Z,100856.21
2023-05-09T16:31:52.732Z,100858.51
2023-05-09T16:36:56.006Z,100851.98
2023-05-09T16:41:59.752Z,100848.81
2023-05-09T16:47:03.064Z,100841.96
2023-05-09T16:52:06.050Z,100840.52
2023-05-09T16:57:09.056Z,100836.69
2023-05-09T17:02:12.282Z,100831.63
2023-05-09T17:07:15.799Z,100826.96
2023-05-09T17:12:18.998Z,100822.11
2023-05-09T17:17:22.114Z,100819.86
2023-05-09T17:22:25.524Z,100819.27
2023-05-09T17:27:28.629Z,100823.95
2023-05-09T17:32:31.661Z,100816.01
2023-05-09T17:37:34.961Z,100815.79
2023-05-09T17:42:38.982Z,100814.39
2023-05-09T17:47:42.062Z,100812.05
2023-05-09T17:52:45.201Z,100816.31
2023-05-09T17:57:48.316Z,100816.84
2023-05-09T18:02:51.831Z,100819.79
2023-05-09T18:07:55.177Z,100820.98
2023-05-09T18:12:58.170Z,100820.29
2023-05-09T18:18:01.169Z,100825.27
2023-05-09T18:23:04.491Z,100829.38
2023-05-09T18:28:07.581Z,100831.97
2023-05-09T18:33:10.685Z,100834.89
2023-05-09T18:38:14.323Z,100835.98
2023-05-09T18:43:17.829Z,100836.54
2023-05-09T18:48:21.862Z,100839.70
2023-05-09T18:53:29.047Z,100834.83
2023-05-09T18:58:32.516Z,100837.78
2023-05-09T19:03:35.692Z,100845.88
2023-05-09T19:08:43.260Z,100843.45
2023-05-09T19:13:49.200Z,100844.96
2023-05-09T19:18:56.518Z,100842.95
2023-05-09T19:24:01.643Z,100844.42
2023-05-09T19:29:08.419Z,100841.25
2023-05-09T19:34:11.653Z,100838.26
2023-05-09T19:39:15.067Z,100834.39
2023-05-09T19:44:18.075Z,100834.33
2023-05-09T19:49:21.518Z,100839.17
2023-05-09T19:54:29.529Z,100833.34
2023-05-09T19:59:32.941Z,100831.15
2023-05-09T20:04:36.866Z,100838.18
2023-05-09T20:09:39.974Z,100844.52
2023-05-09T20:14:44.509Z,100843.52
2023-05-09T20:19:47.725Z,100844.39
2023-05-09T20:24:51.356Z,100847.38
2023-05-09T20:29:54.453Z,100846.69
2023-05-09T20:34:57.573Z,100845.45
2023-05-09T20:40:01.603Z,100847.73
2023-05-09T20:45:05.492Z,100850.69
2023-05-09T20:50:08.887Z,100842.67
2023-05-09T20:55:11.841Z,100848.75
2023-05-09T21:00:15.645Z,100850.64
2023-05-09T21:05:18.776Z,100852.53
2023-05-09T21:10:22.293Z,100852.14
2023-05-09T21:15:25.402Z,100848.61
2023-05-09T21:20:28.505Z,100846.31
2023-05-09T21:25:31.518Z,100846.63
2023-05-09T21:30:34.518Z,100840.46
2023-05-09T21:35:37.520Z,100841.78
2023-05-09T21:40:41.319Z,100842.58
2023-05-09T21:45:45.279Z,100842.16
2023-05-09T21:50:48.285Z,100840.08
2023-05-09T21:55:51.290Z,100842.70
2023-05-09T22:00:55.006Z,100846.61
2023-05-09T22:05:58.023Z,100847.04
2023-05-09T22:11:00.932Z,100847.98
2023-05-09T22:16:04.180Z,100844.77
2023-05-09T22:21:07.449Z,100845.72
2023-05-09T22:26:10.460Z,100843.73
2023-05-09T22:31:13.466Z,100846.39
2023-05-09T22:36:17.185Z,100846.27
2023-05-09T22:41:20.096Z,100839.58
2023-05-09T22:46:23.032Z,100835.16
2023-05-09T22:51:26.101Z,100840.65
2023-05-09T22:56:29.016Z,100831.71
2023-05-09T23:01:32.626Z,100830.70
2023-05-09T23:06:35.646Z,100830.20
2023-05-09T23:11:38.650Z,100834.73
2023-05-09T23:16:41.559Z,100832.83
2023-05-09T23:21:44.557Z,100830.30
2023-05-09T23:26:47.664Z,100829.87
2023-05-09T23:31:51.192Z,100827.13
2023-05-09T23:36:54.197Z,100828.51
2023-05-09T23:41:57.604Z,100830.23
2023-05-09T23:47:02.238Z,100825.90
2023-05-09T23:52:05.848Z,100820.98
2023-05-09T23:57:08.779Z,100822.09
